Time;durP1;ratioP1;P1;durP2;ratioP2;P2;SDS_P1;SDS_P2;PMS_P1;PMS_P2;Temp;Humidity;BMP_temperature;BMP_pressure;BME280_temperature;BME280_humidity;BME280_pressure;Samples;Min_cycle;Max_cycle;Signal;HPM_P1;HPM_P2
2022/04/12 00:01:05;;;;;;;0.10;0.10;;;10.30;99.90;;;;;;5010100;28;20030;-61
2022/04/12 00:03:31;;;;;;;0.10;0.10;;;10.20;99.90;;;;;;5008915;28;20033;-61
2022/04/12 00:05:57;;;;;;;0.15;0.15;;;10.20;99.90;;;;;;5010675;28;20036;-61
2022/04/12 00:08:22;;;;;;;;;;;10.10;99.90;;;;;;5011637;28;20430;-61
2022/04/12 00:10:49;;;;;;;;;;;10.10;99.90;;;;;;5010934;28;20713;-61
2022/04/12 00:13:16;;;;;;;;;;;10.10;99.90;;;;;;5011800;28;19901;-61
2022/04/12 00:15:42;;;;;;;;;;;10.10;99.90;;;;;;5010133;28;19944;-62
2022/04/12 00:20:54;;;;;;;;;;;10.00;99.90;;;;;;4992441;28;19917;-61
2022/04/12 00:23:20;;;;;;;;;;;10.10;99.90;;;;;;4992056;28;19906;-61
2022/04/12 00:25:46;;;;;;;;;;;10.00;99.90;;;;;;5004017;28;20029;-61
2022/04/12 00:28:12;;;;;;;;;;;10.00;99.90;;;;;;4992538;28;20365;-61
2022/04/12 00:30:38;;;;;;;;;;;9.90;99.90;;;;;;4991935;28;20365;-61
2022/04/12 00:33:03;;;;;;;;;;;9.90;99.90;;;;;;4992383;28;19965;-60
2022/04/12 00:35:29;;;;;;;;;;;9.90;99.90;;;;;;5006535;28;20404;-61
2022/04/12 00:37:55;;;;;;;;;;;9.90;99.90;;;;;;5011638;28;19914;-61
2022/04/12 00:40:24;;;;;;;;;;;9.90;99.90;;;;;;5011184;28;19905;-61
2022/04/12 00:42:50;;;;;;;;;;;9.80;99.90;;;;;;5010892;28;20545;-61
2022/04/12 00:45:15;;;;;;;;;;;9.80;99.90;;;;;;5011149;28;19957;-61
2022/04/12 00:47:41;;;;;;;;;;;9.70;99.90;;;;;;5009954;28;19944;-62
2022/04/12 00:50:07;;;;;;;;;;;9.70;99.90;;;;;;5011017;28;20360;-61
2022/04/12 00:52:38;;;;;;;;;;;9.60;99.90;;;;;;5010696;28;19952;-60
2022/04/12 00:55:05;;;;;;;;;;;9.60;99.90;;;;;;5009773;28;20281;-61
2022/04/12 00:57:34;;;;;;;;;;;9.60;99.90;;;;;;5010753;28;20373;-60
2022/04/12 01:00:00;;;;;;;;;;;9.60;99.90;;;;;;5010462;28;19909;-60
2022/04/12 01:02:25;;;;;;;;;;;9.60;99.90;;;;;;5010881;28;19912;-60
2022/04/12 01:04:51;;;;;;;;;;;9.50;99.90;;;;;;5009875;28;19963;-60
2022/04/12 01:07:17;;;;;;;;;;;9.50;99.90;;;;;;5010970;28;19909;-61
2022/04/12 01:09:42;;;;;;;;;;;9.70;99.90;;;;;;5010611;28;19916;-60
2022/04/12 01:12:09;;;;;;;;;;;9.50;99.90;;;;;;5010119;28;19909;-59
2022/04/12 01:14:35;;;;;;;;;;;9.50;99.90;;;;;;4991495;28;19932;-61
2022/04/12 01:17:03;;;;;;;;;;;9.50;99.90;;;;;;5018831;22;20376;-61
2022/04/12 01:19:29;;;;;;;;;;;9.40;99.90;;;;;;5010074;28;19912;-61
2022/04/12 01:22:00;;;;;;;;;;;9.40;99.90;;;;;;5010414;28;19909;-63
2022/04/12 01:24:26;;;;;;;;;;;10.10;99.90;;;;;;5009595;28;19910;-61
2022/04/12 01:26:51;;;;;;;;;;;9.40;99.90;;;;;;5010755;28;19979;-61
2022/04/12 01:29:17;;;;;;;;;;;9.40;99.90;;;;;;5010629;28;20316;-61
2022/04/12 01:31:42;;;;;;;;;;;9.30;99.90;;;;;;5009364;28;19909;-62
2022/04/12 01:34:08;;;;;;;;;;;9.30;99.90;;;;;;5010423;28;19916;-61
2022/04/12 01:36:34;;;;;;;;;;;9.30;99.90;;;;;;5010348;28;19909;-61
2022/04/12 01:38:59;;;;;;;;;;;9.20;99.90;;;;;;5010080;28;20387;-60
2022/04/12 01:41:25;;;;;;;;;;;9.20;99.90;;;;;;5008599;28;19964;-60
2022/04/12 01:43:50;;;;;;;;;;;9.20;99.90;;;;;;5010184;28;19909;-61
2022/04/12 01:46:16;;;;;;;;;;;9.00;99.90;;;;;;5010073;28;20000;-61
2022/04/12 01:48:41;;;;;;;;;;;9.00;99.90;;;;;;5010029;28;19967;-61
2022/04/12 01:51:07;;;;;;;;;;;9.00;99.90;;;;;;4999355;28;19923;-61
2022/04/12 01:53:32;;;;;;;;;;;9.00;99.90;;;;;;4990187;28;19917;-62
2022/04/12 01:55:58;;;;;;;;;;;9.00;99.90;;;;;;4998004;28;19962;-60
2022/04/12 01:58:23;;;;;;;;;;;9.00;99.90;;;;;;5006283;28;20415;-61
2022/04/12 02:00:49;;;;;;;;;;;9.00;99.90;;;;;;5008572;28;19916;-62
2022/04/12 02:03:14;;;;;;;;;;;9.10;99.90;;;;;;5010114;28;20279;-62
2022/04/12 02:05:40;;;;;;;;;;;9.10;99.90;;;;;;5009482;28;20770;-61
2022/04/12 02:08:05;;;;;;;;;;;9.00;99.90;;;;;;5009832;28;19972;-61
2022/04/12 02:10:31;;;;;;;;;;;9.00;99.90;;;;;;5007520;28;19992;-61
2022/04/12 02:12:57;;;;;;;;;;;9.00;99.90;;;;;;5009592;28;19921;-61
2022/04/12 02:15:22;;;;;;;;;;;9.00;99.90;;;;;;5009906;28;19954;-62
2022/04/12 02:17:47;;;;;;;;;;;9.00;99.90;;;;;;5000758;28;19921;-62
2022/04/12 02:20:13;;;;;;;;;;;9.00;99.90;;;;;;4989856;28;19910;-61
2022/04/12 02:22:38;;;;;;;;;;;9.00;99.90;;;;;;4990368;28;19913;-62
2022/04/12 02:25:04;;;;;;;;;;;9.00;99.90;;;;;;4994392;28;19913;-61
2022/04/12 02:27:30;;;;;;;;;;;8.90;99.90;;;;;;5009660;28;19912;-62
2022/04/12 02:29:55;;;;;;;;;;;9.00;99.90;;;;;;5009469;28;20014;-62
2022/04/12 02:32:21;;;;;;;;;;;8.90;99.90;;;;;;4996317;28;19971;-61
2022/04/12 02:34:46;;;;;;;;;;;8.80;99.90;;;;;;5004700;28;19910;-62
2022/04/12 02:37:12;;;;;;;;;;;8.70;99.90;;;;;;5011942;28;19975;-62
2022/04/12 02:39:37;;;;;;;;;;;8.70;99.90;;;;;;5012246;28;19913;-61
2022/04/12 02:42:03;;;;;;;;;;;8.80;99.90;;;;;;5011848;28;20004;-63
2022/04/12 02:44:29;;;;;;;;;;;8.70;99.90;;;;;;5013475;28;20385;-61
2022/04/12 02:46:54;;;;;;;;;;;8.70;99.90;;;;;;5009008;28;19909;-61
2022/04/12 02:49:20;;;;;;;;;;;8.70;99.90;;;;;;4993571;28;19989;-60
2022/04/12 02:51:50;;;;;;;;;;;8.70;99.90;;;;;;5005065;28;20340;-61
2022/04/12 02:54:15;;;;;;;;;;;8.70;99.90;;;;;;5008942;28;19905;-62
2022/04/12 02:56:41;;;;;;;;;;;8.70;99.90;;;;;;5013029;28;19909;-61
2022/04/12 02:59:06;;;;;;;;;;;8.70;99.90;;;;;;5012044;28;19909;-62
2022/04/12 03:01:32;;;;;;;;;;;8.70;99.90;;;;;;5012917;28;19911;-67
2022/04/12 03:03:57;;;;;;;;;;;8.60;99.90;;;;;;5012977;28;20450;-61
2022/04/12 03:06:23;;;;;;;;;;;8.50;99.90;;;;;;5012069;28;19910;-60
2022/04/12 03:08:48;;;;;;;;;;;8.60;99.90;;;;;;5012564;28;19920;-61
2022/04/12 03:11:14;;;;;;;;;;;8.50;99.90;;;;;;5012434;28;19951;-61
2022/04/12 03:13:40;;;;;;;;;;;8.60;99.90;;;;;;5012609;28;19905;-61
2022/04/12 03:16:05;;;;;;;;;;;8.50;99.90;;;;;;5011441;28;19913;-61
2022/04/12 03:18:30;;;;;;;;;;;8.50;99.90;;;;;;5012667;28;20400;-61
2022/04/12 03:20:56;;;;;;;;;;;8.50;99.90;;;;;;5027717;28;19906;-61
2022/04/12 03:23:22;;;;;;;;;;;8.40;99.90;;;;;;5012827;28;20340;-62
2022/04/12 03:25:50;;;;;;;;;;;8.50;99.90;;;;;;5011120;28;20428;-61
2022/04/12 03:28:15;;;;;;;;;;;8.50;99.90;;;;;;5012295;28;19941;-63
2022/04/12 03:30:41;;;;;;;;;;;8.50;99.90;;;;;;5012250;28;20018;-62
2022/04/12 03:33:06;;;;;;;;;;;8.50;99.90;;;;;;5011073;28;20453;-62
2022/04/12 03:35:32;;;;;;;;;;;8.50;99.90;;;;;;5012140;28;19920;-61
2022/04/12 03:38:01;;;;;;;;;;;8.40;99.90;;;;;;5012355;28;20056;-62
2022/04/12 03:40:30;;;;;;;;;;;8.50;99.90;;;;;;5012959;28;19905;-62
2022/04/12 03:43:05;;;;;;;;;;;8.50;99.90;;;;;;5006550;28;20008;-61
2022/04/12 03:45:31;;;;;;;;;;;8.40;99.90;;;;;;4991013;28;19996;-61
2022/04/12 03:47:57;;;;;;;;;;;8.40;99.90;;;;;;5000556;28;19969;-62
2022/04/12 03:50:23;;;;;;;;;;;8.40;99.90;;;;;;5008215;28;19910;-62
2022/04/12 03:52:50;;;;;;;;;;;8.40;99.90;;;;;;5011077;28;20498;-61
2022/04/12 03:55:15;;;;;;;;;;;8.40;99.90;;;;;;5012142;28;20357;-61
2022/04/12 03:57:41;;;;;;;;;;;8.60;99.90;;;;;;5011873;28;19916;-62
2022/04/12 04:00:08;;;;;;;;;;;8.40;99.90;;;;;;5010161;28;19933;-61
2022/04/12 04:02:34;;;;;;;;;;;8.40;99.90;;;;;;5011951;28;19923;-61
2022/04/12 04:04:59;;;;;;;;;;;8.40;99.90;;;;;;5011478;28;20327;-61
2022/04/12 04:07:25;;;;;;;;;;;8.40;99.90;;;;;;5011973;28;19905;-61
2022/04/12 04:09:50;;;;;;;;;;;8.40;99.90;;;;;;5010299;28;20285;-61
2022/04/12 04:12:16;;;;;;;;;;;8.40;99.90;;;;;;5011592;28;19912;-62
2022/04/12 04:14:42;;;;;;;;;;;8.40;99.90;;;;;;5011317;28;20340;-61
2022/04/12 04:17:08;;;;;;;;;;;8.40;99.90;;;;;;5011441;28;19921;-61
2022/04/12 04:19:33;;;;;;;;;;;8.40;99.90;;;;;;5010670;28;19913;-63
2022/04/12 04:21:59;;;;;;;;;;;8.30;99.90;;;;;;5011608;28;20336;-64
2022/04/12 04:24:25;;;;;;;;;;;8.30;99.90;;;;;;5012017;28;19961;-61
2022/04/12 04:26:55;;;;;;;;;;;8.30;99.90;;;;;;5010831;28;19957;-61
2022/04/12 04:29:22;;;;;;;;;;;8.30;99.90;;;;;;5011768;28;19956;-61
2022/04/12 04:31:48;;;;;;;;;;;8.20;99.90;;;;;;5011012;28;19913;-61
2022/04/12 04:34:13;;;;;;;;;;;8.20;99.90;;;;;;5011328;28;20320;-61
2022/04/12 04:36:39;;;;;;;;;;;8.20;99.90;;;;;;5009779;28;19922;-62
2022/04/12 04:39:04;;;;;;;;;;;8.20;99.90;;;;;;5010880;28;20309;-62
2022/04/12 04:41:30;;;;;;;;;;;8.20;99.90;;;;;;4994361;28;19960;-62
2022/04/12 04:43:55;;;;;;;;;;;8.20;99.90;;;;;;5005450;28;19969;-62
2022/04/12 04:46:21;;;;;;;;;;;8.10;99.90;;;;;;5006919;28;19910;-63
2022/04/12 04:48:46;;;;;;;;;;;8.10;99.90;;;;;;5010949;28;19909;-62
2022/04/12 04:51:12;;;;;;;;;;;8.00;99.90;;;;;;5009575;28;20369;-61
2022/04/12 04:53:37;;;;;;;;;;;8.10;99.90;;;;;;5011035;28;20026;-61
2022/04/12 04:56:04;;;;;;;;;;;8.10;99.90;;;;;;5010352;28;20417;-61
2022/04/12 04:58:29;;;;;;;;;;;8.10;99.90;;;;;;5009573;28;19960;-61
2022/04/12 05:00:55;;;;;;;;;;;8.10;99.90;;;;;;5010682;28;19959;-62
2022/04/12 05:03:20;;;;;;;;;;;8.20;99.90;;;;;;5025650;28;19909;-63
2022/04/12 05:05:46;;;;;;;;;;;8.20;99.90;;;;;;5010452;28;19917;-63
2022/04/12 05:08:11;;;;;;;;;;;8.30;99.90;;;;;;5009551;28;19913;-63
2022/04/12 05:10:37;;;;;;;;;;;8.30;99.90;;;;;;5010453;28;20303;-62
2022/04/12 05:13:02;;;;;;;;;;;8.20;99.90;;;;;;5020987;28;20384;-63
2022/04/12 05:15:28;;;;;;;;;;;8.30;99.90;;;;;;5010635;28;19909;-63
2022/04/12 05:17:54;;;;;;;;;;;8.30;99.90;;;;;;5009373;28;20288;-62
2022/04/12 05:20:21;;;;;;;;;;;8.30;99.90;;;;;;5010553;28;20021;-62
2022/04/12 05:22:47;;;;;;;;;;;8.30;99.90;;;;;;5011030;28;19919;-62
2022/04/12 05:25:13;;;;;;;;;;;8.30;99.90;;;;;;5009547;28;20004;-62
2022/04/12 05:27:38;;;;;;;;;;;8.30;99.90;;;;;;5010151;28;20300;-62
2022/04/12 05:30:07;;;;;;;;;;;8.30;99.90;;;;;;5010120;28;19910;-62
2022/04/12 05:32:33;;;;;;;;;;;8.30;99.90;;;;;;5010650;28;20210;-62
2022/04/12 05:34:58;;;;;;;;;;;8.30;99.90;;;;;;5008648;28;20530;-63
2022/04/12 05:37:23;;;;;;;;;;;8.30;99.90;;;;;;5009788;28;20396;-61
2022/04/12 05:39:49;;;;;;;;;;;8.30;99.90;;;;;;4998407;28;20031;-62
2022/04/12 05:42:14;;;;;;;;;;;8.30;99.90;;;;;;4998564;28;19976;-63
2022/04/12 05:44:40;;;;;;;;;;;8.40;99.90;;;;;;4999328;28;19920;-63
2022/04/12 05:47:09;;;;;;;;;;;8.40;99.90;;;;;;5010385;28;19928;-63
2022/04/12 05:49:35;;;;;;;;;;;8.50;99.90;;;;;;5010373;28;19914;-61
2022/04/12 05:52:00;;;;;;;;;;;8.50;99.90;;;;;;5007543;28;20387;-63
2022/04/12 05:54:26;;;;;;;;;;;8.60;99.90;;;;;;5010241;28;19917;-63
2022/04/12 05:56:51;;;;;;;;;;;8.60;99.90;;;;;;5009948;28;19940;-64
2022/04/12 05:59:17;;;;;;;;;;;8.50;99.90;;;;;;5009883;28;19913;-63
2022/04/12 06:01:42;;;;;;;;;;;8.60;99.90;;;;;;5008587;28;20023;-63
2022/04/12 06:04:08;;;;;;;;;;;8.60;99.90;;;;;;5009770;28;19997;-62
2022/04/12 06:06:34;;;;;;;;;;;8.60;99.90;;;;;;5009659;28;19982;-61
2022/04/12 06:09:00;;;;;;;;;;;8.60;99.90;;;;;;5010571;28;20398;-62
2022/04/12 06:11:26;;;;;;;;;;;8.70;99.90;;;;;;4994210;28;19949;-62
2022/04/12 06:13:51;;;;;;;;;;;8.80;99.90;;;;;;5008433;28;19951;-62
2022/04/12 06:16:17;;;;;;;;;;;8.80;99.90;;;;;;5013709;28;19921;-62
2022/04/12 06:18:42;;;;;;;;;;;8.90;99.90;;;;;;4999670;28;19936;-64
2022/04/12 06:21:08;;;;;;;;;;;9.00;99.90;;;;;;4993986;28;19914;-62
2022/04/12 06:23:34;;;;;;;;;;;9.10;99.90;;;;;;4994228;28;19909;-63
2022/04/12 06:25:59;;;;;;;;;;;9.10;99.90;;;;;;5000914;28;19963;-63
2022/04/12 06:28:25;;;;;;;;;;;9.20;99.90;;;;;;5013951;28;19963;-65
2022/04/12 06:30:51;;;;;;;;;;;9.30;99.90;;;;;;5013684;28;20646;-63
2022/04/12 06:33:16;;;;;;;;;;;9.40;99.90;;;;;;5009437;28;20024;-63
2022/04/12 06:35:42;;;;;;;;;;;9.50;99.90;;;;;;5006317;28;20379;-62
2022/04/12 06:38:09;;;;;;;;;;;9.50;99.90;;;;;;5007326;28;19914;-62
2022/04/12 06:40:35;;;;;;;;;;;9.60;99.90;;;;;;4993639;28;19910;-65
2022/04/12 06:43:00;;;;;;;;;;;9.70;99.90;;;;;;5005510;28;20034;-64
2022/04/12 06:45:26;;;;;;;;;;;9.80;99.90;;;;;;5013533;28;20473;-63
2022/04/12 06:47:53;;;;;;;;;;;9.90;99.90;;;;;;5013725;28;19910;-63
2022/04/12 06:50:19;;;;;;;;;;;9.90;99.90;;;;;;5011981;28;19996;-63
2022/04/12 06:52:45;;;;;;;;;;;10.00;99.90;;;;;;5011985;28;20377;-63
2022/04/12 06:55:10;;;;;;;;;;;10.10;99.90;;;;;;5013377;28;19913;-63
2022/04/12 06:57:36;;;;;;;;;;;10.30;99.90;;;;;;5013230;28;19917;-63
2022/04/12 07:00:03;;;;;;;;;;;10.40;99.90;;;;;;5011761;28;19940;-62
2022/04/12 07:02:29;;;;;;;;;;;10.50;99.90;;;;;;5013323;28;19913;-63
2022/04/12 07:04:54;;;;;;;;;;;10.60;99.90;;;;;;5012856;28;19920;-64
2022/04/12 07:07:20;;;;;;;;;;;10.70;99.90;;;;;;5012950;28;19952;-62
2022/04/12 07:09:45;;;;;;;;;;;10.80;99.90;;;;;;5011682;28;19933;-62
2022/04/12 07:12:11;;;;;;;;;;;10.80;99.90;;;;;;5013000;28;19918;-62
2022/04/12 07:14:36;;;;;;;;;;;10.90;99.90;;;;;;5013125;28;19917;-62
2022/04/12 07:17:03;;;;;;;;;;;11.00;99.90;;;;;;5027285;22;20408;-61
2022/04/12 07:19:29;;;;;;;;;;;11.10;99.90;;;;;;5011855;28;19929;-61
2022/04/12 07:21:54;;;;;;;;;;;11.20;99.90;;;;;;5011770;28;19913;-61
2022/04/12 07:24:20;;;;;;;;;;;11.30;99.90;;;;;;5012388;28;19909;-61
2022/04/12 07:26:46;;;;;;;;;;;11.50;99.90;;;;;;5012066;28;19917;-61
2022/04/12 07:29:12;;;;;;;;;;;11.60;99.90;;;;;;5012836;28;19914;-61
2022/04/12 07:31:38;;;;;;;;;;;11.70;99.90;;;;;;5016204;28;19936;-61
2022/04/12 07:34:03;;;;;;;;;;;11.70;99.90;;;;;;5006618;28;19913;-61
2022/04/12 07:36:29;;;;;;;;;;;11.80;99.90;;;;;;4994722;28;20387;-61
2022/04/12 07:38:54;;;;;;;;;;;11.90;99.90;;;;;;5012411;28;19920;-63
2022/04/12 07:41:20;;;;;;;;;;;12.10;99.90;;;;;;4994514;28;19910;-63
2022/04/12 07:43:46;;;;;;;;;;;12.20;99.90;;;;;;4994368;28;19920;-62
2022/04/12 07:46:12;;;;;;;;;;;12.20;99.90;;;;;;4992831;28;20019;-63
2022/04/12 07:48:39;;;;;;;;;;;12.40;99.90;;;;;;4992964;28;20013;-61
2022/04/12 07:51:04;;;;;;;;;;;12.50;99.90;;;;;;4992707;28;19921;-61
2022/04/12 07:53:30;;;;;;;;;;;12.60;99.90;;;;;;4992485;28;19910;-61
2022/04/12 07:55:55;;;;;;;;;;;12.60;99.90;;;;;;5006763;28;20270;-61
2022/04/12 07:58:21;;;;;;;;;;;12.80;99.90;;;;;;5011907;28;19909;-60
2022/04/12 08:00:47;;;;;;;0.10;0.10;;;12.80;99.90;;;;;;4992458;28;20383;-61
2022/04/12 08:03:13;;;;;;;0.17;0.17;;;13.00;99.90;;;;;;4992189;28;20085;-61
2022/04/12 08:05:38;;;;;;;0.10;0.10;;;13.10;99.90;;;;;;4991732;28;20038;-60
2022/04/12 08:08:05;;;;;;;0.10;0.10;;;13.30;99.90;;;;;;4992311;28;20067;-62
2022/04/12 08:10:31;;;;;;;0.10;0.10;;;13.40;99.90;;;;;;4991453;28;20102;-62
2022/04/12 08:12:57;;;;;;;0.10;0.10;;;13.70;99.90;;;;;;4998544;28;20557;-66
2022/04/12 08:15:24;;;;;;;0.10;0.10;;;13.80;99.90;;;;;;5009634;28;20026;-67
2022/04/12 08:17:51;;;;;;;0.10;0.10;;;13.80;99.70;;;;;;4991617;28;20035;-67
2022/04/12 08:20:16;;;;;;;0.20;0.20;;;13.70;99.20;;;;;;4989551;28;20022;-66
2022/04/12 08:22:43;;;;;;;0.10;0.10;;;13.50;99.60;;;;;;4989160;28;20037;-65
2022/04/12 08:25:10;;;;;;;0.10;0.10;;;13.40;99.90;;;;;;4997362;28;20021;-62
2022/04/12 08:27:36;;;;;;;0.65;0.65;;;13.40;99.70;;;;;;5007069;28;20026;-64
2022/04/12 08:30:06;;;;;;;0.10;0.10;;;13.70;99.50;;;;;;5001317;28;20076;-62
2022/04/12 08:32:33;;;;;;;0.38;0.38;;;13.80;99.30;;;;;;5008104;28;20033;-63
2022/04/12 08:34:58;;;;;;;;;;;14.00;98.90;;;;;;5007818;28;20033;-63
2022/04/12 08:37:24;;;;;;;;;;;14.20;98.40;;;;;;5008093;28;19920;-64
2022/04/12 08:39:50;;;;;;;;;;;14.40;97.60;;;;;;5008669;28;19954;-63
2022/04/12 08:42:16;;;;;;;;;;;14.60;97.70;;;;;;5003159;28;20369;-63
2022/04/12 08:44:44;;;;;;;;;;;15.10;95.60;;;;;;4998560;28;20040;-63
2022/04/12 08:47:09;;;;;;;;;;;15.10;95.50;;;;;;5010584;28;20305;-61
2022/04/12 08:49:35;;;;;;;;;;;15.20;94.80;;;;;;5009545;28;20027;-62
2022/04/12 08:52:01;;;;;;;;;;;15.30;96.10;;;;;;5004680;28;19942;-62
2022/04/12 08:54:27;;;;;;;;;;;15.40;96.50;;;;;;5011173;28;19909;-62
2022/04/12 08:56:54;;;;;;;;;;;15.50;95.40;;;;;;5010556;28;20299;-63
2022/04/12 08:59:19;;;;;;;;;;;15.60;94.70;;;;;;5001096;28;19913;-63
2022/04/12 09:01:46;;;;;;;;;;;15.60;95.00;;;;;;4991323;28;19924;-62
2022/04/12 09:04:12;;;;;;;;;;;15.70;94.60;;;;;;4991276;28;19960;-64
2022/04/12 09:06:50;;;;;;;;;;;15.70;94.90;;;;;;4998505;28;20077;-63
2022/04/12 09:09:18;;;;;;;;;;;15.80;94.80;;;;;;5010733;28;19960;-64
2022/04/12 09:11:54;;;;;;;;;;;15.70;94.20;;;;;;5010607;28;19906;-62
2022/04/12 09:14:19;;;;;;;;;;;15.70;94.10;;;;;;5009405;28;19920;-61
2022/04/12 09:16:45;;;;;;;;;;;15.70;93.20;;;;;;5010048;28;19916;-64
2022/04/12 09:19:11;;;;;;;;;;;15.60;93.90;;;;;;5010716;28;20350;-62
2022/04/12 09:21:44;;;;;;;;;;;15.80;93.20;;;;;;5009540;28;19958;-60
2022/04/12 09:24:18;;;;;;;;;;;15.90;93.00;;;;;;5006746;28;20665;-61
2022/04/12 09:26:43;;;;;;;;;;;16.00;92.60;;;;;;5010029;28;20379;-64
2022/04/12 09:29:10;;;;;;;;;;;16.30;92.00;;;;;;5009970;28;19935;-63
2022/04/12 09:31:36;;;;;;;;;;;16.40;91.70;;;;;;5007537;28;19956;-62
2022/04/12 09:34:02;;;;;;;;;;;16.60;91.40;;;;;;5009561;28;20047;-63
2022/04/12 09:36:34;;;;;;;;;;;16.80;90.30;;;;;;5009467;28;19921;-62
2022/04/12 09:39:00;;;;;;;;;;;17.00;87.70;;;;;;5008266;28;19906;-63
2022/04/12 09:41:27;;;;;;;;;;;17.00;87.20;;;;;;5008640;28;19959;-62
2022/04/12 09:43:52;;;;;;;;;;;17.10;83.30;;;;;;5009565;28;20365;-63
2022/04/12 09:46:18;;;;;;;;;;;17.20;82.50;;;;;;5010277;28;19920;-69
2022/04/12 09:48:47;;;;;;;;;;;17.00;82.10;;;;;;5010079;28;20394;-67
2022/04/12 09:51:13;;;;;;;;;;;17.00;82.20;;;;;;5007704;28;19917;-68
2022/04/12 09:53:40;;;;;;;;;;;17.10;81.60;;;;;;5010044;28;19975;-68
2022/04/12 09:56:16;;;;;;;;;;;17.10;81.60;;;;;;5009690;28;19953;-69
2022/04/12 09:58:43;;;;;;;;;;;17.30;79.00;;;;;;4989320;28;20306;-67
2022/04/12 10:01:09;;;;;;;;;;;17.40;77.10;;;;;;4991691;28;19992;-68
2022/04/12 10:03:35;;;;;;;;;;;17.40;76.90;;;;;;5010490;28;19913;-67
2022/04/12 10:06:01;;;;;;;;;;;17.50;76.70;;;;;;5011192;28;19978;-66
2022/04/12 10:08:29;;;;;;;;;;;17.50;76.80;;;;;;4993379;28;19917;-68
2022/04/12 10:10:55;;;;;;;;;;;17.40;75.70;;;;;;5007796;28;19905;-67
2022/04/12 10:13:20;;;;;;;;;;;17.70;76.50;;;;;;5009878;28;19905;-68
2022/04/12 10:15:46;;;;;;;;;;;17.80;75.80;;;;;;5009747;28;19912;-67
2022/04/12 10:18:12;;;;;;;;;;;18.10;74.20;;;;;;4992753;28;19957;-68
2022/04/12 10:20:39;;;;;;;;;;;18.10;72.10;;;;;;5010384;28;20421;-63
2022/04/12 10:23:05;;;;;;;;;;;18.00;72.40;;;;;;5008828;28;19909;-64
2022/04/12 10:25:30;;;;;;;;;;;18.30;72.60;;;;;;5008950;28;19906;-62
2022/04/12 10:27:57;;;;;;;;;;;18.50;73.10;;;;;;5007390;28;20375;-62
2022/04/12 10:30:26;;;;;;;;;;;18.60;69.60;;;;;;5009866;28;20014;-62
2022/04/12 10:33:03;;;;;;;;;;;18.80;68.70;;;;;;5010146;28;19906;-63
2022/04/12 10:35:30;;;;;;;;;;;19.00;66.90;;;;;;5006127;28;19996;-62
2022/04/12 10:37:58;;;;;;;;;;;19.10;67.60;;;;;;4972965;28;19921;-66
2022/04/12 10:40:25;;;;;;;;;;;19.20;67.60;;;;;;4990585;28;19992;-63
2022/04/12 10:42:52;;;;;;;;;;;19.20;64.80;;;;;;4990586;28;19906;-61
2022/04/12 10:45:26;;;;;;;;;;;19.20;62.40;;;;;;4990862;28;19910;-62
2022/04/12 10:47:56;;;;;;;;;;;19.20;63.20;;;;;;4990350;28;19906;-62
2022/04/12 10:50:21;;;;;;;;;;;19.20;62.80;;;;;;4990044;28;19936;-63
2022/04/12 10:52:50;;;;;;;;;;;19.30;62.50;;;;;;5004015;28;19933;-62
2022/04/12 10:55:17;;;;;;;;;;;19.30;62.60;;;;;;4991763;28;19916;-61
2022/04/12 10:57:43;;;;;;;;;;;19.40;60.80;;;;;;4993804;28;19916;-62
2022/04/12 11:00:10;;;;;;;;;;;19.50;60.60;;;;;;4994218;28;19913;-62
2022/04/12 11:02:46;;;;;;;;;;;19.70;59.20;;;;;;5013175;28;19917;-61
2022/04/12 11:05:30;;;;;;;;;;;19.80;58.70;;;;;;5013041;28;19912;-62
2022/04/12 11:07:55;;;;;;;;;;;20.00;58.70;;;;;;5013331;28;19956;-63
2022/04/12 11:10:21;;;;;;;;;;;20.30;57.40;;;;;;5010724;28;20367;-63
2022/04/12 11:12:48;;;;;;;;;;;20.60;57.00;;;;;;4997130;28;19916;-63
2022/04/12 11:15:40;;;;;;;;;;;20.60;54.00;;;;;;5012832;28;19905;-61
2022/04/12 11:18:06;;;;;;;;;;;20.60;54.80;;;;;;5000539;28;19917;-62
2022/04/12 11:20:33;;;;;;;0.00;0.00;;;20.80;55.20;;;;;;4996050;28;19945;-62
2022/04/12 11:23:02;;;;;;;0.00;0.00;;;20.80;53.30;;;;;;4993106;28;20029;-60
2022/04/12 11:25:28;;;;;;;;;;;20.90;53.20;;;;;;4994135;28;20064;-61
2022/04/12 11:27:58;;;;;;;0.00;0.00;;;21.00;53.10;;;;;;5007213;28;20658;-61
2022/04/12 11:30:25;;;;;;;0.00;0.00;;;20.90;52.60;;;;;;4992784;28;20113;-60
2022/04/12 11:32:54;;;;;;;0.00;0.00;;;21.00;53.50;;;;;;4993287;28;20026;-60
2022/04/12 11:35:21;;;;;;;0.00;0.00;;;21.00;52.30;;;;;;4993564;28;20592;-61
2022/04/12 11:37:48;;;;;;;0.00;0.00;;;21.00;51.80;;;;;;5005833;28;20030;-60
2022/04/12 11:40:13;;;;;;;0.00;0.00;;;21.10;52.80;;;;;;5012270;28;20069;-63
2022/04/12 11:42:39;;;;;;;0.00;0.00;;;21.40;53.20;;;;;;5012593;28;20033;-61
2022/04/12 11:45:05;;;;;;;0.00;0.00;;;21.40;52.60;;;;;;4999763;28;20062;-61
2022/04/12 11:47:33;;;;;;;0.00;0.00;;;21.60;52.30;;;;;;4999892;28;20041;-63
2022/04/12 11:50:00;;;;;;;0.00;0.00;;;21.80;52.20;;;;;;5012764;28;20033;-65
2022/04/12 11:52:27;;;;;;;0.10;0.10;;;21.80;51.80;;;;;;5010704;28;20037;-62
2022/04/12 11:54:53;;;;;;;0.00;0.00;;;21.70;51.70;;;;;;4992704;28;20023;-62
2022/04/12 11:57:21;;;;;;;0.00;0.00;;;21.70;52.00;;;;;;4992310;28;20033;-61
2022/04/12 11:59:49;;;;;;;0.00;0.00;;;21.70;52.40;;;;;;4992008;28;20018;-63
2022/04/12 12:02:17;;;;;;;0.00;0.00;;;21.80;52.30;;;;;;4992458;28;20033;-62
2022/04/12 12:05:00;;;;;;;0.52;0.52;;;21.90;52.50;;;;;;4991731;28;20430;-62
2022/04/12 12:07:27;;;;;;;0.00;0.00;;;21.90;52.90;;;;;;5008067;28;20030;-61
2022/04/12 12:10:05;;;;;;;0.00;0.00;;;22.20;51.30;;;;;;5008117;28;20034;-62
2022/04/12 12:12:45;;;;;;;0.00;0.00;;;22.50;51.90;;;;;;5010482;28;20038;-60
2022/04/12 12:15:18;;;;;;;0.00;0.00;;;22.50;52.00;;;;;;5000348;28;20054;-62
2022/04/12 12:17:45;;;;;;;0.00;0.00;;;22.70;51.40;;;;;;4991889;28;20034;-62
2022/04/12 12:20:15;;;;;;;0.10;0.10;;;22.90;51.60;;;;;;4991779;28;20027;-62
2022/04/12 12:22:43;;;;;;;0.00;0.00;;;22.90;52.30;;;;;;4990759;28;20402;-62
2022/04/12 12:25:13;;;;;;;0.00;0.00;;;23.00;51.70;;;;;;4992380;28;20027;-63
2022/04/12 12:27:41;;;;;;;0.00;0.00;;;23.00;50.40;;;;;;5010153;28;20580;-61
2022/04/12 12:30:14;;;;;;;0.00;0.00;;;23.30;50.50;;;;;;4993444;28;20578;-61
2022/04/12 12:32:41;;;;;;;0.00;0.00;;;23.30;50.70;;;;;;5011587;28;20037;-62
2022/04/12 12:35:15;;;;;;;0.00;0.00;;;23.10;49.90;;;;;;5001315;28;20104;-62
2022/04/12 12:37:42;;;;;;;0.00;0.00;;;23.10;50.60;;;;;;5003707;28;20030;-61
2022/04/12 12:40:23;;;;;;;0.00;0.00;;;23.10;51.00;;;;;;5011199;28;20440;-61
2022/04/12 12:42:50;;;;;;;0.00;0.00;;;23.10;50.80;;;;;;5011555;28;20100;-62
2022/04/12 12:45:24;;;;;;;0.00;0.00;;;23.30;51.40;;;;;;4994377;28;20030;-61
2022/04/12 12:47:52;;;;;;;0.00;0.00;;;23.40;49.00;;;;;;5000839;28;20033;-60
2022/04/12 12:50:20;;;;;;;0.00;0.00;;;23.70;50.00;;;;;;5011146;28;20029;-61
2022/04/12 12:52:46;;;;;;;0.00;0.00;;;23.90;49.00;;;;;;5006779;28;20490;-62
2022/04/12 12:55:23;;;;;;;0.00;0.00;;;24.10;48.40;;;;;;4991614;28;20107;-62
2022/04/12 12:57:51;;;;;;;0.00;0.00;;;24.20;48.50;;;;;;4991169;28;20030;-63
2022/04/12 13:00:19;;;;;;;0.00;0.00;;;24.50;47.70;;;;;;4991207;28;20023;-62
2022/04/12 13:02:45;;;;;;;0.00;0.00;;;24.60;47.70;;;;;;4992006;28;20452;-62
2022/04/12 13:05:16;;;;;;;0.00;0.00;;;24.70;47.80;;;;;;4995526;28;20507;-63
2022/04/12 13:07:42;;;;;;;0.00;0.00;;;24.60;48.00;;;;;;5010912;28;20528;-61
2022/04/12 13:10:18;;;;;;;0.00;0.00;;;24.70;48.70;;;;;;5004805;28;20018;-62
2022/04/12 13:12:45;;;;;;;0.00;0.00;;;24.60;47.00;;;;;;5008311;28;20509;-61
2022/04/12 13:15:14;;;;;;;0.00;0.00;;;24.90;47.50;;;;;;5011350;28;20045;-61
2022/04/12 13:17:40;;;;;;;0.00;0.00;;;25.10;48.00;;;;;;5025690;22;20493;-63
2022/04/12 13:20:15;;;;;;;0.00;0.00;;;25.20;47.40;;;;;;5009190;28;20037;-64
2022/04/12 13:22:42;;;;;;;0.00;0.00;;;25.50;46.20;;;;;;5011196;28;20076;-64
2022/04/12 13:25:08;;;;;;;0.00;0.00;;;25.70;46.20;;;;;;5011555;28;20065;-65
2022/04/12 13:27:36;;;;;;;0.05;0.05;;;25.70;45.30;;;;;;5011143;28;20018;-65
2022/04/12 13:30:04;;;;;;;0.00;0.00;;;25.60;45.50;;;;;;4981365;28;20030;-66
2022/04/12 13:32:30;;;;;;;0.00;0.00;;;25.50;45.80;;;;;;4972435;28;20491;-64
2022/04/12 13:34:56;;;;;;;0.00;0.00;;;25.40;45.80;;;;;;4972200;28;20041;-63
2022/04/12 13:37:21;;;;;;;0.00;0.00;;;25.40;45.50;;;;;;4974845;28;20042;-68
2022/04/12 13:39:51;;;;;;;0.00;0.00;;;25.90;45.30;;;;;;4971932;28;20538;-65
2022/04/12 13:42:17;;;;;;;0.00;0.00;;;26.40;42.70;;;;;;4971580;28;20031;-63
2022/04/12 13:44:43;;;;;;;0.00;0.00;;;26.40;43.70;;;;;;4971683;28;20023;-63
2022/04/12 13:47:09;;;;;;;0.00;0.00;;;26.40;43.00;;;;;;4975057;28;20438;-63
2022/04/12 13:49:35;;;;;;;0.00;0.00;;;26.10;43.80;;;;;;4991072;28;20065;-63
2022/04/12 13:52:01;;;;;;;0.00;0.00;;;25.90;42.90;;;;;;4991123;28;20033;-63
2022/04/12 13:54:28;;;;;;;0.00;0.00;;;25.50;43.50;;;;;;4980819;28;20486;-63
2022/04/12 13:56:58;;;;;;;0.00;0.00;;;25.20;43.30;;;;;;4971552;28;20042;-63
2022/04/12 13:59:24;;;;;;;0.00;0.00;;;25.00;44.20;;;;;;4971653;28;20023;-63